sensor_id;sensor_type;location;lat;lon;timestamp;temperature;humidity
12604;DHT22;6367;52.508;13.284;2023-03-14T00:03:35;15.70;99.90
12604;DHT22;6367;52.508;13.284;2023-03-14T00:06:05;15.60;99.90
12604;DHT22;6367;52.508;13.284;2023-03-14T00:08:31;15.70;99.90
12604;DHT22;6367;52.508;13.284;2023-03-14T00:10:56;15.60;99.90
12604;DHT22;6367;52.508;13.284;2023-03-14T00:13:25;15.60;99.90
12604;DHT22;6367;52.508;13.284;2023-03-14T00:15:51;15.50;99.90
12604;DHT22;6367;52.508;13.284;2023-03-14T00:18:16;15.40;99.90
12604;DHT22;6367;52.508;13.284;2023-03-14T00:20:45;15.50;99.90
12604;DHT22;6367;52.508;13.284;2023-03-14T00:23:11;15.40;99.90
12604;DHT22;6367;52.508;13.284;2023-03-14T00:25:36;15.30;99.90
12604;DHT22;6367;52.508;13.284;2023-03-14T00:28:04;15.30;99.90
12604;DHT22;6367;52.508;13.284;2023-03-14T00:30:30;15.30;99.90
12604;DHT22;6367;52.508;13.284;2023-03-14T00:32:56;15.40;99.90
12604;DHT22;6367;52.508;13.284;2023-03-14T00:35:21;15.40;99.90
12604;DHT22;6367;52.508;13.284;2023-03-14T00:37:47;15.30;99.90
12604;DHT22;6367;52.508;13.284;2023-03-14T00:40:13;15.30;99.90
12604;DHT22;6367;52.508;13.284;2023-03-14T00:42:39;15.20;99.90
12604;DHT22;6367;52.508;13.284;2023-03-14T00:45:05;15.20;99.90
12604;DHT22;6367;52.508;13.284;2023-03-14T00:47:32;15.10;99.90
12604;DHT22;6367;52.508;13.284;2023-03-14T00:49:58;15.10;99.90
12604;DHT22;6367;52.508;13.284;2023-03-14T00:52:25;15.00;99.90
12604;DHT22;6367;52.508;13.284;2023-03-14T00:54:50;15.10;99.90
12604;DHT22;6367;52.508;13.284;2023-03-14T00:57:16;15.10;99.90
12604;DHT22;6367;52.508;13.284;2023-03-14T00:59:41;15.00;99.90
12604;DHT22;6367;52.508;13.284;2023-03-14T01:02:07;15.00;99.90
12604;DHT22;6367;52.508;13.284;2023-03-14T01:04:33;15.00;99.90
12604;DHT22;6367;52.508;13.284;2023-03-14T01:07:00;15.00;99.90
12604;DHT22;6367;52.508;13.284;2023-03-14T01:09:25;15.00;99.90
12604;DHT22;6367;52.508;13.284;2023-03-14T01:11:51;15.00;99.90
12604;DHT22;6367;52.508;13.284;2023-03-14T01:14:16;14.90;99.90
12604;DHT22;6367;52.508;13.284;2023-03-14T01:16:42;14.90;99.90
12604;DHT22;6367;52.508;13.284;2023-03-14T01:19:09;14.80;99.90
12604;DHT22;6367;52.508;13.284;2023-03-14T01:21:35;14.70;99.90
12604;DHT22;6367;52.508;13.284;2023-03-14T01:24:02;14.70;99.90
12604;DHT22;6367;52.508;13.284;2023-03-14T01:26:30;14.70;99.90
12604;DHT22;6367;52.508;13.284;2023-03-14T01:28:56;14.70;99.90
12604;DHT22;6367;52.508;13.284;2023-03-14T01:31:23;14.70;99.90
12604;DHT22;6367;52.508;13.284;2023-03-14T01:33:49;14.70;99.90
12604;DHT22;6367;52.508;13.284;2023-03-14T01:36:15;14.70;99.90
12604;DHT22;6367;52.508;13.284;2023-03-14T01:38:41;14.70;99.90
12604;DHT22;6367;52.508;13.284;2023-03-14T01:41:11;14.70;99.90
12604;DHT22;6367;52.508;13.284;2023-03-14T01:43:37;14.60;99.90
12604;DHT22;6367;52.508;13.284;2023-03-14T01:48:38;14.60;99.90
12604;DHT22;6367;52.508;13.284;2023-03-14T01:51:10;14.60;99.90
12604;DHT22;6367;52.508;13.284;2023-03-14T01:53:38;14.60;99.90
12604;DHT22;6367;52.508;13.284;2023-03-14T01:56:05;14.60;99.90
12604;DHT22;6367;52.508;13.284;2023-03-14T01:58:33;14.50;99.90
12604;DHT22;6367;52.508;13.284;2023-03-14T02:01:02;14.60;99.90
12604;DHT22;6367;52.508;13.284;2023-03-14T02:03:30;14.60;99.90
12604;DHT22;6367;52.508;13.284;2023-03-14T02:06:00;14.50;99.90
12604;DHT22;6367;52.508;13.284;2023-03-14T02:08:29;14.50;99.90
12604;DHT22;6367;52.508;13.284;2023-03-14T02:10:55;14.60;99.90
12604;DHT22;6367;52.508;13.284;2023-03-14T02:13:21;14.60;99.90
12604;DHT22;6367;52.508;13.284;2023-03-14T02:15:47;14.50;99.90
12604;DHT22;6367;52.508;13.284;2023-03-14T02:18:14;14.50;99.90
12604;DHT22;6367;52.508;13.284;2023-03-14T02:26:17;14.50;99.90
12604;DHT22;6367;52.508;13.284;2023-03-14T02:28:46;14.50;99.90
12604;DHT22;6367;52.508;13.284;2023-03-14T02:31:12;14.50;99.90
12604;DHT22;6367;52.508;13.284;2023-03-14T02:33:38;14.40;99.90
12604;DHT22;6367;52.508;13.284;2023-03-14T02:36:09;14.40;99.90
12604;DHT22;6367;52.508;13.284;2023-03-14T02:38:37;14.50;99.90
12604;DHT22;6367;52.508;13.284;2023-03-14T02:41:05;14.40;99.90
12604;DHT22;6367;52.508;13.284;2023-03-14T02:43:31;14.40;99.90
12604;DHT22;6367;52.508;13.284;2023-03-14T02:45:57;14.40;99.90
12604;DHT22;6367;52.508;13.284;2023-03-14T02:48:35;14.40;99.90
12604;DHT22;6367;52.508;13.284;2023-03-14T02:51:03;14.50;99.90
12604;DHT22;6367;52.508;13.284;2023-03-14T02:53:32;14.50;99.90
12604;DHT22;6367;52.508;13.284;2023-03-14T02:55:58;14.50;99.90
12604;DHT22;6367;52.508;13.284;2023-03-14T02:58:25;14.40;99.90
12604;DHT22;6367;52.508;13.284;2023-03-14T03:00:51;14.40;99.90
12604;DHT22;6367;52.508;13.284;2023-03-14T03:03:17;14.40;99.90
12604;DHT22;6367;52.508;13.284;2023-03-14T03:05:43;14.30;99.90
12604;DHT22;6367;52.508;13.284;2023-03-14T03:08:09;14.30;99.90
12604;DHT22;6367;52.508;13.284;2023-03-14T03:10:35;14.30;99.90
12604;DHT22;6367;52.508;13.284;2023-03-14T03:13:01;14.30;99.90
12604;DHT22;6367;52.508;13.284;2023-03-14T03:15:28;14.30;99.90
12604;DHT22;6367;52.508;13.284;2023-03-14T03:17:54;14.30;99.90
12604;DHT22;6367;52.508;13.284;2023-03-14T03:20:19;14.20;99.90
12604;DHT22;6367;52.508;13.284;2023-03-14T03:22:45;14.20;99.90
12604;DHT22;6367;52.508;13.284;2023-03-14T03:25:10;14.20;99.90
12604;DHT22;6367;52.508;13.284;2023-03-14T03:27:37;14.20;99.90
12604;DHT22;6367;52.508;13.284;2023-03-14T03:30:07;14.20;99.90
12604;DHT22;6367;52.508;13.284;2023-03-14T03:32:33;14.30;99.90
12604;DHT22;6367;52.508;13.284;2023-03-14T03:34:59;14.30;99.90
12604;DHT22;6367;52.508;13.284;2023-03-14T03:37:25;14.30;99.90
12604;DHT22;6367;52.508;13.284;2023-03-14T03:39:51;14.20;99.90
12604;DHT22;6367;52.508;13.284;2023-03-14T03:42:17;14.30;99.90
12604;DHT22;6367;52.508;13.284;2023-03-14T03:44:43;14.30;99.90
12604;DHT22;6367;52.508;13.284;2023-03-14T03:47:08;14.40;99.90
12604;DHT22;6367;52.508;13.284;2023-03-14T03:49:34;14.30;99.90
12604;DHT22;6367;52.508;13.284;2023-03-14T03:52:00;14.30;99.90
12604;DHT22;6367;52.508;13.284;2023-03-14T03:54:26;14.30;99.90
12604;DHT22;6367;52.508;13.284;2023-03-14T03:56:51;14.20;99.90
12604;DHT22;6367;52.508;13.284;2023-03-14T03:59:17;14.20;99.90
12604;DHT22;6367;52.508;13.284;2023-03-14T04:01:43;14.20;99.90
12604;DHT22;6367;52.508;13.284;2023-03-14T04:04:09;14.20;99.90
12604;DHT22;6367;52.508;13.284;2023-03-14T04:06:34;14.30;99.90
12604;DHT22;6367;52.508;13.284;2023-03-14T04:09:00;14.20;99.90
12604;DHT22;6367;52.508;13.284;2023-03-14T04:11:26;14.20;99.90
12604;DHT22;6367;52.508;13.284;2023-03-14T04:13:52;14.20;99.90
12604;DHT22;6367;52.508;13.284;2023-03-14T04:16:21;14.20;99.90
12604;DHT22;6367;52.508;13.284;2023-03-14T04:18:47;14.20;99.90
12604;DHT22;6367;52.508;13.284;2023-03-14T04:21:13;14.20;99.90
12604;DHT22;6367;52.508;13.284;2023-03-14T04:23:39;14.30;99.90
12604;DHT22;6367;52.508;13.284;2023-03-14T04:26:05;14.30;99.90
12604;DHT22;6367;52.508;13.284;2023-03-14T04:28:30;14.30;99.90
12604;DHT22;6367;52.508;13.284;2023-03-14T04:30:56;14.30;99.90
12604;DHT22;6367;52.508;13.284;2023-03-14T04:33:22;14.30;99.90
12604;DHT22;6367;52.508;13.284;2023-03-14T04:35:48;14.30;99.90
12604;DHT22;6367;52.508;13.284;2023-03-14T04:38:15;14.40;99.90
12604;DHT22;6367;52.508;13.284;2023-03-14T04:40:41;14.40;99.90
12604;DHT22;6367;52.508;13.284;2023-03-14T04:43:08;14.40;99.90
12604;DHT22;6367;52.508;13.284;2023-03-14T04:45:35;14.40;99.90
12604;DHT22;6367;52.508;13.284;2023-03-14T04:48:01;14.40;99.90
12604;DHT22;6367;52.508;13.284;2023-03-14T04:50:26;14.40;99.90
12604;DHT22;6367;52.508;13.284;2023-03-14T04:52:52;14.40;99.90
12604;DHT22;6367;52.508;13.284;2023-03-14T04:55:18;14.40;99.90
12604;DHT22;6367;52.508;13.284;2023-03-14T04:57:43;14.30;99.90
12604;DHT22;6367;52.508;13.284;2023-03-14T05:00:09;14.20;99.90
12604;DHT22;6367;52.508;13.284;2023-03-14T05:02:35;14.30;99.90
12604;DHT22;6367;52.508;13.284;2023-03-14T05:05:01;14.30;99.90
12604;DHT22;6367;52.508;13.284;2023-03-14T05:07:27;14.40;99.90
12604;DHT22;6367;52.508;13.284;2023-03-14T05:09:52;14.40;99.90
12604;DHT22;6367;52.508;13.284;2023-03-14T05:12:19;14.30;99.90
12604;DHT22;6367;52.508;13.284;2023-03-14T05:14:45;14.30;99.90
12604;DHT22;6367;52.508;13.284;2023-03-14T05:17:11;14.30;99.90
12604;DHT22;6367;52.508;13.284;2023-03-14T05:19:40;14.30;99.90
12604;DHT22;6367;52.508;13.284;2023-03-14T05:22:06;14.30;99.90
12604;DHT22;6367;52.508;13.284;2023-03-14T05:24:32;14.30;99.90
12604;DHT22;6367;52.508;13.284;2023-03-14T05:26:58;14.20;99.90
12604;DHT22;6367;52.508;13.284;2023-03-14T05:29:23;14.20;99.90
12604;DHT22;6367;52.508;13.284;2023-03-14T05:31:49;14.30;99.90
12604;DHT22;6367;52.508;13.284;2023-03-14T05:34:15;14.30;99.90
12604;DHT22;6367;52.508;13.284;2023-03-14T05:36:41;14.30;99.90
12604;DHT22;6367;52.508;13.284;2023-03-14T05:39:06;14.30;99.90
12604;DHT22;6367;52.508;13.284;2023-03-14T05:41:32;14.20;99.90
12604;DHT22;6367;52.508;13.284;2023-03-14T05:43:58;14.20;99.90
12604;DHT22;6367;52.508;13.284;2023-03-14T05:46:24;14.20;99.90
12604;DHT22;6367;52.508;13.284;2023-03-14T05:48:49;14.20;99.90
12604;DHT22;6367;52.508;13.284;2023-03-14T05:51:15;14.20;99.90
12604;DHT22;6367;52.508;13.284;2023-03-14T05:53:41;14.30;99.90
12604;DHT22;6367;52.508;13.284;2023-03-14T05:56:07;14.20;99.90
12604;DHT22;6367;52.508;13.284;2023-03-14T05:58:33;14.30;99.90
12604;DHT22;6367;52.508;13.284;2023-03-14T06:01:02;14.20;99.90
12604;DHT22;6367;52.508;13.284;2023-03-14T06:03:28;14.30;99.90
12604;DHT22;6367;52.508;13.284;2023-03-14T06:05:54;14.20;99.90
12604;DHT22;6367;52.508;13.284;2023-03-14T06:08:20;14.30;99.90
12604;DHT22;6367;52.508;13.284;2023-03-14T06:10:46;14.30;99.90
12604;DHT22;6367;52.508;13.284;2023-03-14T06:13:12;14.30;99.90
12604;DHT22;6367;52.508;13.284;2023-03-14T06:15:37;14.30;99.90
12604;DHT22;6367;52.508;13.284;2023-03-14T06:18:03;14.40;99.90
12604;DHT22;6367;52.508;13.284;2023-03-14T06:20:29;14.40;99.90
12604;DHT22;6367;52.508;13.284;2023-03-14T06:22:54;14.30;99.90
12604;DHT22;6367;52.508;13.284;2023-03-14T06:25:20;14.30;99.90
12604;DHT22;6367;52.508;13.284;2023-03-14T06:27:46;14.40;99.90
12604;DHT22;6367;52.508;13.284;2023-03-14T06:30:12;14.40;99.90
12604;DHT22;6367;52.508;13.284;2023-03-14T06:32:37;14.40;99.90
12604;DHT22;6367;52.508;13.284;2023-03-14T06:35:03;14.50;99.90
12604;DHT22;6367;52.508;13.284;2023-03-14T06:37:29;14.50;99.90
12604;DHT22;6367;52.508;13.284;2023-03-14T06:39:55;14.50;99.90
12604;DHT22;6367;52.508;13.284;2023-03-14T06:42:21;14.60;99.90
12604;DHT22;6367;52.508;13.284;2023-03-14T06:44:50;14.60;99.90
12604;DHT22;6367;52.508;13.284;2023-03-14T06:47:16;14.70;99.90
12604;DHT22;6367;52.508;13.284;2023-03-14T06:49:45;14.70;99.90
12604;DHT22;6367;52.508;13.284;2023-03-14T06:52:11;14.80;99.90
12604;DHT22;6367;52.508;13.284;2023-03-14T06:54:38;14.80;99.90
12604;DHT22;6367;52.508;13.284;2023-03-14T06:57:03;14.20;99.80
12604;DHT22;6367;52.508;13.284;2023-03-14T06:59:29;14.90;99.90
12604;DHT22;6367;52.508;13.284;2023-03-14T07:01:55;15.40;99.90
12604;DHT22;6367;52.508;13.284;2023-03-14T07:04:20;15.00;99.80
12604;DHT22;6367;52.508;13.284;2023-03-14T07:06:46;15.10;99.90
12604;DHT22;6367;52.508;13.284;2023-03-14T07:09:13;15.10;99.60
12604;DHT22;6367;52.508;13.284;2023-03-14T07:11:39;15.10;99.60
12604;DHT22;6367;52.508;13.284;2023-03-14T07:14:05;15.00;99.60
12604;DHT22;6367;52.508;13.284;2023-03-14T07:16:31;15.20;99.50
12604;DHT22;6367;52.508;13.284;2023-03-14T07:18:59;15.10;99.30
12604;DHT22;6367;52.508;13.284;2023-03-14T07:21:25;15.20;99.30
12604;DHT22;6367;52.508;13.284;2023-03-14T07:23:51;15.10;99.30
12604;DHT22;6367;52.508;13.284;2023-03-14T07:26:17;15.00;99.60
12604;DHT22;6367;52.508;13.284;2023-03-14T07:28:42;15.10;99.60
12604;DHT22;6367;52.508;13.284;2023-03-14T07:31:08;15.10;99.60
12604;DHT22;6367;52.508;13.284;2023-03-14T07:33:34;15.30;99.90
12604;DHT22;6367;52.508;13.284;2023-03-14T07:36:00;15.40;99.30
12604;DHT22;6367;52.508;13.284;2023-03-14T07:38:26;15.70;99.30
12604;DHT22;6367;52.508;13.284;2023-03-14T07:41:00;15.80;98.90
12604;DHT22;6367;52.508;13.284;2023-03-14T07:43:26;15.90;98.90
12604;DHT22;6367;52.508;13.284;2023-03-14T07:45:52;16.00;98.70
12604;DHT22;6367;52.508;13.284;2023-03-14T07:48:18;16.10;98.50
12604;DHT22;6367;52.508;13.284;2023-03-14T07:50:47;16.10;98.20
12604;DHT22;6367;52.508;13.284;2023-03-14T07:53:13;16.00;98.40
12604;DHT22;6367;52.508;13.284;2023-03-14T07:55:40;15.70;98.50
12604;DHT22;6367;52.508;13.284;2023-03-14T07:58:05;15.90;98.50
12604;DHT22;6367;52.508;13.284;2023-03-14T08:00:32;15.90;98.70
12604;DHT22;6367;52.508;13.284;2023-03-14T08:02:58;15.90;98.60
12604;DHT22;6367;52.508;13.284;2023-03-14T08:05:23;15.90;98.50
12604;DHT22;6367;52.508;13.284;2023-03-14T08:07:49;15.90;98.50
12604;DHT22;6367;52.508;13.284;2023-03-14T08:10:15;15.90;98.50
12604;DHT22;6367;52.508;13.284;2023-03-14T08:12:51;15.90;98.50
12604;DHT22;6367;52.508;13.284;2023-03-14T08:15:18;15.80;98.50
12604;DHT22;6367;52.508;13.284;2023-03-14T08:17:44;15.70;98.60
12604;DHT22;6367;52.508;13.284;2023-03-14T08:20:10;15.70;99.10
12604;DHT22;6367;52.508;13.284;2023-03-14T08:22:37;15.70;98.70
12604;DHT22;6367;52.508;13.284;2023-03-14T08:25:03;15.70;99.00
12604;DHT22;6367;52.508;13.284;2023-03-14T08:27:29;15.80;98.70
12604;DHT22;6367;52.508;13.284;2023-03-14T08:29:54;15.80;98.50
12604;DHT22;6367;52.508;13.284;2023-03-14T08:32:20;15.70;98.60
12604;DHT22;6367;52.508;13.284;2023-03-14T08:34:46;15.80;98.80
12604;DHT22;6367;52.508;13.284;2023-03-14T08:37:12;15.80;98.70
12604;DHT22;6367;52.508;13.284;2023-03-14T08:39:37;15.90;98.80
12604;DHT22;6367;52.508;13.284;2023-03-14T08:42:03;15.90;98.60
12604;DHT22;6367;52.508;13.284;2023-03-14T08:44:29;15.80;98.40
12604;DHT22;6367;52.508;13.284;2023-03-14T08:46:55;15.90;98.40
12604;DHT22;6367;52.508;13.284;2023-03-14T08:49:21;15.90;98.00
12604;DHT22;6367;52.508;13.284;2023-03-14T08:51:46;16.00;98.10
12604;DHT22;6367;52.508;13.284;2023-03-14T08:54:12;15.80;98.20
12604;DHT22;6367;52.508;13.284;2023-03-14T08:56:38;15.90;98.00
12604;DHT22;6367;52.508;13.284;2023-03-14T08:59:04;15.80;97.90
12604;DHT22;6367;52.508;13.284;2023-03-14T09:01:30;15.80;97.90
12604;DHT22;6367;52.508;13.284;2023-03-14T09:03:56;15.80;97.90
12604;DHT22;6367;52.508;13.284;2023-03-14T09:06:22;15.80;97.90
12604;DHT22;6367;52.508;13.284;2023-03-14T09:08:48;15.90;97.60
12604;DHT22;6367;52.508;13.284;2023-03-14T09:11:14;15.80;97.70
12604;DHT22;6367;52.508;13.284;2023-03-14T09:13:40;15.80;97.80
12604;DHT22;6367;52.508;13.284;2023-03-14T09:16:07;15.90;97.60
12604;DHT22;6367;52.508;13.284;2023-03-14T09:18:32;16.10;97.90
12604;DHT22;6367;52.508;13.284;2023-03-14T09:20:58;16.40;97.70
12604;DHT22;6367;52.508;13.284;2023-03-14T09:23:24;16.60;97.40
12604;DHT22;6367;52.508;13.284;2023-03-14T09:25:57;16.90;97.40
12604;DHT22;6367;52.508;13.284;2023-03-14T09:28:23;17.20;96.40
12604;DHT22;6367;52.508;13.284;2023-03-14T09:30:49;17.40;96.30
12604;DHT22;6367;52.508;13.284;2023-03-14T09:33:15;17.60;96.20
12604;DHT22;6367;52.508;13.284;2023-03-14T09:35:41;17.80;96.00
12604;DHT22;6367;52.508;13.284;2023-03-14T09:38:07;17.90;95.50
12604;DHT22;6367;52.508;13.284;2023-03-14T09:40:35;18.20;95.00
12604;DHT22;6367;52.508;13.284;2023-03-14T09:43:01;18.20;95.10
12604;DHT22;6367;52.508;13.284;2023-03-14T09:45:29;18.20;94.90
12604;DHT22;6367;52.508;13.284;2023-03-14T09:47:57;18.10;94.60
12604;DHT22;6367;52.508;13.284;2023-03-14T09:50:24;18.00;94.30
12604;DHT22;6367;52.508;13.284;2023-03-14T09:52:53;17.70;94.30
12604;DHT22;6367;52.508;13.284;2023-03-14T09:55:22;17.60;94.60
12604;DHT22;6367;52.508;13.284;2023-03-14T09:57:50;17.50;94.80
12604;DHT22;6367;52.508;13.284;2023-03-14T10:00:23;17.30;94.90
12604;DHT22;6367;52.508;13.284;2023-03-14T10:03:34;17.20;95.20
12604;DHT22;6367;52.508;13.284;2023-03-14T10:05:53;17.10;94.80
12604;DHT22;6367;52.508;13.284;2023-03-14T10:08:20;17.10;94.70
12604;DHT22;6367;52.508;13.284;2023-03-14T10:10:45;17.00;95.00
12604;DHT22;6367;52.508;13.284;2023-03-14T10:13:24;16.90;95.20
12604;DHT22;6367;52.508;13.284;2023-03-14T10:15:55;16.80;94.90
12604;DHT22;6367;52.508;13.284;2023-03-14T10:18:23;16.70;94.90
12604;DHT22;6367;52.508;13.284;2023-03-14T10:21:02;16.70;95.00
12604;DHT22;6367;52.508;13.284;2023-03-14T10:23:30;16.70;95.00
12604;DHT22;6367;52.508;13.284;2023-03-14T10:28:31;16.60;95.20
12604;DHT22;6367;52.508;13.284;2023-03-14T10:30:59;16.60;95.20
12604;DHT22;6367;52.508;13.284;2023-03-14T10:33:29;16.70;95.20
12604;DHT22;6367;52.508;13.284;2023-03-14T10:36:20;16.70;94.80
12604;DHT22;6367;52.508;13.284;2023-03-14T10:38:47;16.70;95.00
12604;DHT22;6367;52.508;13.284;2023-03-14T10:41:24;16.70;95.00
12604;DHT22;6367;52.508;13.284;2023-03-14T10:43:56;16.60;94.50
12604;DHT22;6367;52.508;13.284;2023-03-14T10:46:24;16.60;94.60
12604;DHT22;6367;52.508;13.284;2023-03-14T10:48:52;16.50;94.50
12604;DHT22;6367;52.508;13.284;2023-03-14T10:54:00;15.80;94.60
12604;DHT22;6367;52.508;13.284;2023-03-14T10:56:27;16.50;94.80
12604;DHT22;6367;52.508;13.284;2023-03-14T10:58:56;16.50;94.90
12604;DHT22;6367;52.508;13.284;2023-03-14T11:01:46;16.50;94.80
12604;DHT22;6367;52.508;13.284;2023-03-14T11:04:25;16.50;94.60
12604;DHT22;6367;52.508;13.284;2023-03-14T11:07:09;16.50;94.80
12604;DHT22;6367;52.508;13.284;2023-03-14T11:09:56;16.50;94.90
12604;DHT22;6367;52.508;13.284;2023-03-14T11:18:39;16.50;94.60
12604;DHT22;6367;52.508;13.284;2023-03-14T11:24:11;16.40;94.80
12604;DHT22;6367;52.508;13.284;2023-03-14T11:27:22;16.50;94.70
12604;DHT22;6367;52.508;13.284;2023-03-14T11:29:54;16.50;94.80
12604;DHT22;6367;52.508;13.284;2023-03-14T11:35:24;16.50;94.90
12604;DHT22;6367;52.508;13.284;2023-03-14T11:40:40;16.60;95.00
12604;DHT22;6367;52.508;13.284;2023-03-14T11:43:29;16.70;95.10
12604;DHT22;6367;52.508;13.284;2023-03-14T11:46:03;16.60;95.10
12604;DHT22;6367;52.508;13.284;2023-03-14T11:48:58;16.80;95.30
12604;DHT22;6367;52.508;13.284;2023-03-14T11:51:25;16.60;95.50
12604;DHT22;6367;52.508;13.284;2023-03-14T11:56:37;16.70;95.70
12604;DHT22;6367;52.508;13.284;2023-03-14T11:59:14;16.70;95.70
12604;DHT22;6367;52.508;13.284;2023-03-14T12:01:52;16.70;95.60
12604;DHT22;6367;52.508;13.284;2023-03-14T12:04:39;16.60;95.60
12604;DHT22;6367;52.508;13.284;2023-03-14T12:10:07;16.70;96.00
12604;DHT22;6367;52.508;13.284;2023-03-14T12:12:33;16.70;96.10
12604;DHT22;6367;52.508;13.284;2023-03-14T12:15:02;16.60;96.20
12604;DHT22;6367;52.508;13.284;2023-03-14T12:17:37;16.70;96.30
12604;DHT22;6367;52.508;13.284;2023-03-14T12:20:23;16.70;96.30
12604;DHT22;6367;52.508;13.284;2023-03-14T12:23:12;16.80;96.10
12604;DHT22;6367;52.508;13.284;2023-03-14T12:25:37;16.90;95.90
12604;DHT22;6367;52.508;13.284;2023-03-14T12:28:21;16.80;96.00
12604;DHT22;6367;52.508;13.284;2023-03-14T12:30:47;16.70;96.10
12604;DHT22;6367;52.508;13.284;2023-03-14T12:33:33;16.80;96.10
12604;DHT22;6367;52.508;13.284;2023-03-14T12:36:01;16.80;96.40
12604;DHT22;6367;52.508;13.284;2023-03-14T12:41:20;16.90;96.30
12604;DHT22;6367;52.508;13.284;2023-03-14T12:43:48;16.90;96.40
12604;DHT22;6367;52.508;13.284;2023-03-14T12:48:46;16.90;96.50
12604;DHT22;6367;52.508;13.284;2023-03-14T12:51:17;17.00;96.60
12604;DHT22;6367;52.508;13.284;2023-03-14T12:56:20;17.10;96.50
12604;DHT22;6367;52.508;13.284;2023-03-14T13:01:19;17.10;96.50
12604;DHT22;6367;52.508;13.284;2023-03-14T13:03:52;17.10;97.20
12604;DHT22;6367;52.508;13.284;2023-03-14T13:06:54;17.00;97.40
12604;DHT22;6367;52.508;13.284;2023-03-14T13:14:33;16.80;98.10
12604;DHT22;6367;52.508;13.284;2023-03-14T13:17:00;16.80;98.30
12604;DHT22;6367;52.508;13.284;2023-03-14T13:19:31;16.80;98.50
12604;DHT22;6367;52.508;13.284;2023-03-14T13:22:03;16.80;99.20
12604;DHT22;6367;52.508;13.284;2023-03-14T13:24:29;16.60;99.60
12604;DHT22;6367;52.508;13.284;2023-03-14T13:26:58;16.60;99.90
12604;DHT22;6367;52.508;13.284;2023-03-14T13:29:29;16.60;99.90
12604;DHT22;6367;52.508;13.284;2023-03-14T13:31:59;16.70;99.90
12604;DHT22;6367;52.508;13.284;2023-03-14T13:34:26;16.90;99.90
12604;DHT22;6367;52.508;13.284;2023-03-14T13:36:54;17.00;99.90
12604;DHT22;6367;52.508;13.284;2023-03-14T13:39:22;17.00;99.90
12604;DHT22;6367;52.508;13.284;2023-03-14T13:41:54;17.10;99.90
12604;DHT22;6367;52.508;13.284;2023-03-14T13:44:34;17.00;99.90
12604;DHT22;6367;52.508;13.284;2023-03-14T13:47:01;17.00;99.90
12604;DHT22;6367;52.508;13.284;2023-03-14T13:49:29;17.00;99.90
12604;DHT22;6367;52.508;13.284;2023-03-14T13:51:56;17.10;99.90
12604;DHT22;6367;52.508;13.284;2023-03-14T13:54:22;17.20;99.90
12604;DHT22;6367;52.508;13.284;2023-03-14T13:57:03;17.40;99.20
12604;DHT22;6367;52.508;13.284;2023-03-14T13:59:33;17.40;98.90
12604;DHT22;6367;52.508;13.284;2023-03-14T14:02:03;17.50;98.60
12604;DHT22;6367;52.508;13.284;2023-03-14T14:04:32;17.60;98.30
12604;DHT22;6367;52.508;13.284;2023-03-14T14:07:06;17.50;98.10
12604;DHT22;6367;52.508;13.284;2023-03-14T14:09:58;17.70;97.30
12604;DHT22;6367;52.508;13.284;2023-03-14T14:12:36;17.80;96.40
12604;DHT22;6367;52.508;13.284;2023-03-14T14:15:28;17.80;96.00
12604;DHT22;6367;52.508;13.284;2023-03-14T14:18:01;17.70;95.90
12604;DHT22;6367;52.508;13.284;2023-03-14T14:20:33;17.70;96.00
12604;DHT22;6367;52.508;13.284;2023-03-14T14:23:05;17.60;96.20
12604;DHT22;6367;52.508;13.284;2023-03-14T14:25:32;17.60;96.30
12604;DHT22;6367;52.508;13.284;2023-03-14T14:27:59;17.50;96.30
12604;DHT22;6367;52.508;13.284;2023-03-14T14:30:26;17.40;96.40
12604;DHT22;6367;52.508;13.284;2023-03-14T14:32:52;17.40;96.50
12604;DHT22;6367;52.508;13.284;2023-03-14T14:35:35;17.30;96.50
12604;DHT22;6367;52.508;13.284;2023-03-14T14:38:02;17.30;96.70
12604;DHT22;6367;52.508;13.284;2023-03-14T14:40:30;17.30;96.70
12604;DHT22;6367;52.508;13.284;2023-03-14T14:43:03;17.20;96.80
12604;DHT22;6367;52.508;13.284;2023-03-14T14:45:29;17.20;96.70
12604;DHT22;6367;52.508;13.284;2023-03-14T14:50:33;17.20;96.50
12604;DHT22;6367;52.508;13.284;2023-03-14T14:56:25;17.00;96.70
12604;DHT22;6367;52.508;13.284;2023-03-14T14:58:59;16.90;96.70
12604;DHT22;6367;52.508;13.284;2023-03-14T15:01:36;17.00;96.70
12604;DHT22;6367;52.508;13.284;2023-03-14T15:04:04;17.00;96.80
12604;DHT22;6367;52.508;13.284;2023-03-14T15:06:34;16.90;96.70
12604;DHT22;6367;52.508;13.284;2023-03-14T15:09:00;16.30;96.90
12604;DHT22;6367;52.508;13.284;2023-03-14T15:11:26;16.80;97.10
12604;DHT22;6367;52.508;13.284;2023-03-14T15:13:52;16.80;96.20
12604;DHT22;6367;52.508;13.284;2023-03-14T15:16:20;16.50;97.80
12604;DHT22;6367;52.508;13.284;2023-03-14T15:18:53;15.30;98.10
12604;DHT22;6367;52.508;13.284;2023-03-14T15:21:21;15.40;98.30
12604;DHT22;6367;52.508;13.284;2023-03-14T15:23:46;14.60;98.60
12604;DHT22;6367;52.508;13.284;2023-03-14T15:26:18;13.90;99.50
12604;DHT22;6367;52.508;13.284;2023-03-14T15:28:44;13.40;99.90
12604;DHT22;6367;52.508;13.284;2023-03-14T15:31:12;12.80;99.90
12604;DHT22;6367;52.508;13.284;2023-03-14T15:33:38;12.50;99.90
12604;DHT22;6367;52.508;13.284;2023-03-14T15:36:06;12.00;99.90
12604;DHT22;6367;52.508;13.284;2023-03-14T15:38:40;11.60;99.90
12604;DHT22;6367;52.508;13.284;2023-03-14T15:41:05;11.30;99.90
12604;DHT22;6367;52.508;13.284;2023-03-14T15:43:31;11.50;99.90
12604;DHT22;6367;52.508;13.284;2023-03-14T15:45:57;10.90;99.90
12604;DHT22;6367;52.508;13.284;2023-03-14T15:48:23;10.70;99.90
12604;DHT22;6367;52.508;13.284;2023-03-14T15:50:48;10.50;99.90
12604;DHT22;6367;52.508;13.284;2023-03-14T15:53:15;10.30;99.90
12604;DHT22;6367;52.508;13.284;2023-03-14T15:55:41;10.20;99.90
12604;DHT22;6367;52.508;13.284;2023-03-14T15:58:11;10.00;99.90
12604;DHT22;6367;52.508;13.284;2023-03-14T16:00:40;10.20;99.90
12604;DHT22;6367;52.508;13.284;2023-03-14T16:03:06;9.60;99.90
12604;DHT22;6367;52.508;13.284;2023-03-14T16:05:32;9.30;99.90
12604;DHT22;6367;52.508;13.284;2023-03-14T16:07:58;9.20;99.90
12604;DHT22;6367;52.508;13.284;2023-03-14T16:10:23;9.00;99.90
12604;DHT22;6367;52.508;13.284;2023-03-14T16:12:49;8.90;99.90
12604;DHT22;6367;52.508;13.284;2023-03-14T16:15:15;8.80;99.90
12604;DHT22;6367;52.508;13.284;2023-03-14T16:17:41;8.70;99.90
12604;DHT22;6367;52.508;13.284;2023-03-14T16:20:09;8.50;99.90
12604;DHT22;6367;52.508;13.284;2023-03-14T16:22:35;8.50;99.90
12604;DHT22;6367;52.508;13.284;2023-03-14T16:25:08;8.40;99.90
12604;DHT22;6367;52.508;13.284;2023-03-14T16:27:34;8.30;99.90
12604;DHT22;6367;52.508;13.284;2023-03-14T16:29:59;8.20;99.90
12604;DHT22;6367;52.508;13.284;2023-03-14T16:32:25;8.10;99.90
12604;DHT22;6367;52.508;13.284;2023-03-14T16:34:51;8.00;99.90
12604;DHT22;6367;52.508;13.284;2023-03-14T16:37:17;7.80;99.90